Dades meteomassalio
Diari Summary for Febrer 23, 2018 Units:  English    Metric   Both
« Previous Day
Next Day »
Diari Semanal Mensual Anual Personalitzat
  Maxima: Minima: Mijana:
Temperatura: TemperatureC °F -2.8 °F 3.3 °F
Rosada: DewpointC °F -6.1 °F -3.9 °F
Humitat: Humidity % 39 % 61 %
Velocitat del vent: WindSpeedKMH mph 0.0 mph 15.9 mph
Racha vent: WindSpeedGustKMH mph - -
Vent:- - WNW
Pressio: PressurehPa in 1009.0 in -
Pluja: 0.0 in    
Historical Graphs
 
 
Tabular Data for Febrer 23, 2018
Time Temperature Dew Point Pressure Wind Wind Speed Wind Gust Humidity Rainfall Rate (Hourly) solar Conditions
TemperatureC °F DewpointC °F PressurehPa in Calm     Humidity % HourlyPrecipMM in SolarRadiationWatts/m^2 W/m2 Conditions
00:04 2.2 °F -5.7 °F 1010.7 in NW 25.9 mph 25.9 mph 56 % 0.0 in 0.0 W/m2 CLR
00:09 2.2 °F -5.4 °F 1010.7 in NW 31.5 mph 31.5 mph 57 % 0.0 in 0.0 W/m2 CLR
00:14 2.2 °F -5.4 °F 1010.7 in WNW 33.3 mph 33.3 mph 57 % 0.0 in 0.0 W/m2 CLR
00:19 2.2 °F -5.2 °F 1010.7 in NW 29.6 mph 29.6 mph 58 % 0.0 in 0.0 W/m2 CLR
00:24 2.2 °F -5.2 °F 1010.7 in NW 33.8 mph 33.8 mph 58 % 0.0 in 0.0 W/m2 CLR
00:29 2.2 °F -5.0 °F 1010.7 in WNW 27.8 mph 27.8 mph 59 % 0.0 in 0.0 W/m2 CLR
00:34 2.2 °F -5.0 °F 1010.7 in WNW 24.1 mph 24.1 mph 59 % 0.0 in 0.0 W/m2 CLR
00:39 2.2 °F -4.8 °F 1010.7 in West 22.5 mph 22.5 mph 60 % 0.0 in 0.0 W/m2 CLR
00:44 1.7 °F -5.3 °F 1010.7 in WNW 29.6 mph 29.6 mph 60 % 0.0 in 0.0 W/m2 CLR
00:49 1.7 °F -5.3 °F 1010.7 in WNW 25.9 mph 25.9 mph 60 % 0.0 in 0.0 W/m2 CLR
00:54 2.2 °F -4.6 °F 1010.7 in WNW 25.9 mph 25.9 mph 61 % 0.0 in 0.0 W/m2 CLR
00:59 1.7 °F -5.1 °F 1010.7 in WNW 37.0 mph 37.0 mph 61 % 0.0 in 0.0 W/m2 CLR
01:04 1.7 °F -5.1 °F 1010.7 in WNW 31.5 mph 31.5 mph 61 % 0.0 in 0.0 W/m2 CLR
01:09 2.2 °F -4.6 °F 1010.4 in West 29.6 mph 29.6 mph 61 % 0.0 in 0.0 W/m2 CLR
01:14 2.2 °F -4.6 °F 1010.7 in NW 29.6 mph 29.6 mph 61 % 0.0 in 0.0 W/m2 CLR
01:19 1.7 °F -4.8 °F 1010.7 in NW 25.9 mph 25.9 mph 62 % 0.0 in 0.0 W/m2 CLR
01:24 2.2 °F -4.3 °F 1010.7 in WNW 30.6 mph 30.6 mph 62 % 0.0 in 0.0 W/m2 CLR
01:29 2.2 °F -4.3 °F 1010.7 in WNW 33.3 mph 33.3 mph 62 % 0.0 in 0.0 W/m2 CLR
01:34 2.2 °F -4.3 °F 1010.7 in NW 24.1 mph 24.1 mph 62 % 0.0 in 0.0 W/m2 CLR
01:39 2.2 °F -4.3 °F 1010.7 in WNW 25.7 mph 25.7 mph 62 % 0.0 in 0.0 W/m2 CLR
01:44 1.7 °F -4.8 °F 1010.7 in WNW 25.9 mph 25.9 mph 62 % 0.0 in 0.0 W/m2 CLR
01:49 1.7 °F -4.6 °F 1010.4 in WNW 18.5 mph 18.8 mph 63 % 0.0 in 0.0 W/m2 CLR
01:54 1.7 °F -4.6 °F 1010.4 in WNW 24.1 mph 24.1 mph 63 % 0.0 in 0.0 W/m2 CLR
01:59 1.7 °F -4.6 °F 1010.7 in WNW 16.7 mph 16.7 mph 63 % 0.0 in 0.0 W/m2 CLR
02:04 1.7 °F -4.6 °F 1010.7 in West 18.5 mph 18.5 mph 63 % 0.0 in 0.0 W/m2 CLR
02:10 1.7 °F -4.4 °F 1010.7 in NW 22.2 mph 22.2 mph 64 % 0.0 in 0.0 W/m2 CLR
02:15 1.7 °F -4.4 °F 1010.7 in WNW 11.3 mph 11.3 mph 64 % 0.0 in 0.0 W/m2 CLR
02:20 1.7 °F -4.4 °F 1010.7 in West 18.5 mph 18.5 mph 64 % 0.0 in 0.0 W/m2 CLR
02:25 1.7 °F -4.2 °F 1010.7 in West 18.5 mph 18.5 mph 65 % 0.0 in 0.0 W/m2 CLR
02:30 1.7 °F -4.2 °F 1010.7 in West 18.5 mph 18.5 mph 65 % 0.0 in 0.0 W/m2 CLR
02:35 1.7 °F -4.2 °F 1010.7 in WNW 16.1 mph 16.1 mph 65 % 0.0 in 0.0 W/m2 CLR
02:40 1.7 °F -4.2 °F 1010.7 in West 18.5 mph 18.5 mph 65 % 0.0 in 0.0 W/m2 CLR
02:45 1.7 °F -4.0 °F 1010.7 in West 24.1 mph 24.1 mph 66 % 0.0 in 0.0 W/m2 CLR
02:50 1.7 °F -4.0 °F 1010.7 in West 18.5 mph 18.5 mph 66 % 0.0 in 0.0 W/m2 CLR
02:55 1.7 °F -3.8 °F 1010.7 in West 18.5 mph 18.5 mph 67 % 0.0 in 0.0 W/m2 CLR
03:00 1.7 °F -3.8 °F 1010.7 in WNW 19.3 mph 19.3 mph 67 % 0.0 in 0.0 W/m2 CLR
03:05 1.7 °F -3.8 °F 1010.7 in WNW 22.2 mph 22.2 mph 67 % 0.0 in 0.0 W/m2 CLR
03:10 1.7 °F -3.8 °F 1010.7 in West 16.7 mph 16.7 mph 67 % 0.0 in 0.0 W/m2 CLR
03:15 1.1 °F -4.2 °F 1010.4 in West 14.8 mph 14.8 mph 68 % 0.0 in 0.0 W/m2 CLR
03:20 1.1 °F -4.2 °F 1010.7 in West 11.3 mph 11.3 mph 68 % 0.0 in 0.0 W/m2 CLR
03:25 1.1 °F -4.2 °F 1010.4 in WNW 14.8 mph 14.8 mph 68 % 0.0 in 0.0 W/m2 CLR
03:30 1.1 °F -3.9 °F 1010.4 in WNW 16.7 mph 16.7 mph 69 % 0.0 in 0.0 W/m2 CLR
03:35 0.6 °F -4.5 °F 1010.4 in West 19.3 mph 19.3 mph 69 % 0.0 in 0.0 W/m2 CLR
03:40 0.6 °F -4.5 °F 1010.4 in West 22.2 mph 22.2 mph 69 % 0.0 in 0.0 W/m2 CLR
03:45 0.6 °F -4.5 °F 1010.4 in WNW 16.7 mph 16.7 mph 69 % 0.0 in 0.0 W/m2 CLR
03:50 0.6 °F -4.3 °F 1010.4 in WNW 18.5 mph 18.5 mph 70 % 0.0 in 0.0 W/m2 CLR
03:55 0.6 °F -4.3 °F 1010.4 in WNW 22.2 mph 22.2 mph 70 % 0.0 in 0.0 W/m2 CLR
04:00 0.6 °F -4.3 °F 1010.0 in West 20.4 mph 20.4 mph 70 % 0.0 in 0.0 W/m2 CLR
04:05 0.6 °F -4.3 °F 1010.0 in WSW 20.4 mph 20.4 mph 70 % 0.0 in 0.0 W/m2 CLR
04:10 0.6 °F -4.3 °F 1010.0 in WNW 18.5 mph 18.5 mph 70 % 0.0 in 0.0 W/m2 CLR
04:15 0.6 °F -4.5 °F 1010.0 in West 9.3 mph 9.3 mph 69 % 0.0 in 0.0 W/m2 CLR
04:20 0.6 °F -4.5 °F 1010.4 in West 14.8 mph 14.8 mph 69 % 0.0 in 0.0 W/m2 CLR
04:25 0.6 °F -4.3 °F 1010.0 in West 13.0 mph 13.0 mph 70 % 0.0 in 0.0 W/m2 CLR
04:30 0.6 °F -4.3 °F 1010.0 in West 11.1 mph 11.1 mph 70 % 0.0 in 0.0 W/m2 CLR
04:35 0.0 °F -4.8 °F 1010.0 in West 14.8 mph 14.8 mph 70 % 0.0 in 0.0 W/m2 CLR
04:40 0.0 °F -4.8 °F 1010.0 in West 16.1 mph 16.1 mph 70 % 0.0 in 0.0 W/m2 CLR
04:45 0.0 °F -4.8 °F 1010.0 in West 18.5 mph 18.5 mph 70 % 0.0 in 0.0 W/m2 CLR
04:50 0.0 °F -4.6 °F 1010.0 in West 18.5 mph 18.5 mph 71 % 0.0 in 0.0 W/m2 CLR
04:55 0.0 °F -4.6 °F 1010.4 in WNW 14.8 mph 14.8 mph 71 % 0.0 in 0.0 W/m2 CLR
05:00 0.0 °F -4.6 °F 1010.4 in West 12.9 mph 12.9 mph 71 % 0.0 in 0.0 W/m2 CLR
05:05 0.0 °F -4.6 °F 1010.4 in West 14.8 mph 14.8 mph 71 % 0.0 in 0.0 W/m2 CLR
05:10 0.0 °F -4.6 °F 1010.4 in West 18.5 mph 18.5 mph 71 % 0.0 in 0.0 W/m2 CLR
05:15 0.0 °F -4.6 °F 1010.4 in West 11.1 mph 11.1 mph 71 % 0.0 in 0.0 W/m2 CLR
05:20 -0.6 °F -5.0 °F 1010.4 in West 13.0 mph 13.0 mph 72 % 0.0 in 0.0 W/m2 CLR
05:25 -0.6 °F -5.0 °F 1010.4 in West 16.7 mph 16.7 mph 72 % 0.0 in 0.0 W/m2 CLR
05:30 -0.6 °F -5.0 °F 1010.4 in West 16.1 mph 16.1 mph 72 % 0.0 in 0.0 W/m2 CLR
05:35 -1.1 °F -5.5 °F 1010.4 in West 16.7 mph 16.7 mph 72 % 0.0 in 0.0 W/m2 CLR
05:40 -0.6 °F -5.0 °F 1010.4 in West 18.5 mph 18.5 mph 72 % 0.0 in 0.0 W/m2 CLR
05:45 -0.6 °F -5.0 °F 1010.4 in West 18.5 mph 18.5 mph 72 % 0.0 in 0.0 W/m2 CLR
05:50 -0.6 °F -5.0 °F 1010.4 in West 18.5 mph 18.5 mph 72 % 0.0 in 0.0 W/m2 CLR
05:55 -0.6 °F -4.8 °F 1010.0 in West 18.5 mph 18.5 mph 73 % 0.0 in 0.0 W/m2 CLR
06:00 -0.6 °F -4.8 °F 1010.0 in West 18.5 mph 18.5 mph 73 % 0.0 in 0.0 W/m2 CLR
06:05 -0.6 °F -4.8 °F 1010.0 in West 18.5 mph 18.5 mph 73 % 0.0 in 0.0 W/m2 CLR
06:10 -0.6 °F -4.8 °F 1010.4 in West 14.8 mph 14.8 mph 73 % 0.0 in 0.0 W/m2 CLR
06:15 0.0 °F -4.3 °F 1010.4 in West 18.5 mph 18.5 mph 73 % 0.0 in 0.0 W/m2 CLR
06:20 0.0 °F -4.3 °F 1010.0 in West 16.7 mph 16.7 mph 73 % 0.0 in 0.0 W/m2 CLR
06:25 0.0 °F -4.3 °F 1010.4 in West 14.8 mph 14.8 mph 73 % 0.0 in 0.0 W/m2 CLR
06:30 0.0 °F -4.3 °F 1010.4 in West 16.1 mph 16.1 mph 73 % 0.0 in 0.0 W/m2 CLR
06:35 0.0 °F -4.3 °F 1010.4 in West 18.5 mph 18.5 mph 73 % 0.0 in 0.0 W/m2 CLR
06:40 0.0 °F -4.3 °F 1010.4 in West 14.8 mph 14.8 mph 73 % 0.0 in 0.0 W/m2 CLR
06:45 0.0 °F -4.3 °F 1010.4 in West 18.5 mph 18.5 mph 73 % 0.0 in 0.0 W/m2 CLR
06:50 -0.6 °F -4.8 °F 1010.4 in WNW 14.8 mph 14.8 mph 73 % 0.0 in 0.0 W/m2 CLR
06:55 -0.6 °F -5.0 °F 1010.4 in WNW 18.5 mph 18.5 mph 72 % 0.0 in 0.0 W/m2 CLR
07:00 -0.6 °F -5.2 °F 1010.4 in WNW 16.7 mph 16.7 mph 71 % 0.0 in 0.0 W/m2 CLR
07:05 -0.6 °F -5.2 °F 1010.4 in West 22.2 mph 22.2 mph 71 % 0.0 in 0.0 W/m2 CLR
07:10 -0.6 °F -5.2 °F 1010.4 in WSW 19.3 mph 19.3 mph 71 % 0.0 in 0.0 W/m2 CLR
07:15 0.0 °F -4.6 °F 1010.4 in West 11.3 mph 11.3 mph 71 % 0.0 in 0.0 W/m2 CLR
07:20 0.0 °F -4.4 °F 1010.4 in West 25.9 mph 25.9 mph 72 % 0.0 in 0.0 W/m2 CLR
07:25 0.0 °F -4.4 °F 1010.4 in NW 16.7 mph 16.7 mph 72 % 0.0 in 0.0 W/m2 CLR
07:30 0.0 °F -4.4 °F 1010.4 in West 22.2 mph 22.2 mph 72 % 0.0 in 0.0 W/m2 CLR
07:35 0.0 °F -4.4 °F 1010.4 in WNW 25.9 mph 25.9 mph 72 % 0.0 in 0.0 W/m2 OVC
07:40 -0.6 °F -5.0 °F 1010.4 in WNW 18.5 mph 18.5 mph 72 % 0.0 in 0.0 W/m2 OVC
07:45 -0.6 °F -5.0 °F 1010.4 in West 20.4 mph 20.4 mph 72 % 0.0 in 5.0 W/m2 OVC
07:50 -0.6 °F -5.2 °F 1010.4 in WNW 18.5 mph 18.5 mph 71 % 0.0 in 9.0 W/m2 BKN
07:55 -0.6 °F -5.2 °F 1010.7 in WNW 18.5 mph 18.5 mph 71 % 0.0 in 12.0 W/m2 BKN
08:00 0.0 °F -4.6 °F 1010.4 in WNW 24.1 mph 24.1 mph 71 % 0.0 in 16.0 W/m2 BKN
08:05 0.0 °F -4.8 °F 1010.7 in WNW 20.9 mph 20.9 mph 70 % 0.0 in 19.0 W/m2 BKN
08:10 0.0 °F -4.8 °F 1010.7 in WNW 20.4 mph 20.4 mph 70 % 0.0 in 25.0 W/m2 BKN
08:15 0.0 °F -4.8 °F 1010.7 in WNW 18.5 mph 18.5 mph 70 % 0.0 in 28.0 W/m2 BKN
08:20 0.6 °F -4.3 °F 1010.7 in West 11.1 mph 11.1 mph 70 % 0.0 in 42.0 W/m2 BKN
08:25 0.6 °F -4.1 °F 1010.7 in West 14.8 mph 14.8 mph 71 % 0.0 in 47.0 W/m2 SCT
08:30 0.6 °F -4.1 °F 1010.7 in WNW 7.4 mph 7.4 mph 71 % 0.0 in 63.0 W/m2 SCT
08:35 0.6 °F -4.1 °F 1010.7 in WNW 14.8 mph 14.8 mph 71 % 0.0 in 77.0 W/m2 FEW
08:40 1.1 °F -3.9 °F 1010.7 in NW 24.1 mph 24.1 mph 69 % 0.0 in 91.0 W/m2 CLR
08:45 1.1 °F -4.2 °F 1011.1 in NW 22.2 mph 22.2 mph 68 % 0.0 in 109.0 W/m2 CLR
08:50 1.1 °F -4.3 °F 1010.7 in WNW 18.5 mph 18.5 mph 67 % 0.0 in 113.0 W/m2 CLR
08:55 1.7 °F -3.8 °F 1011.1 in WNW 18.5 mph 18.5 mph 67 % 0.0 in 139.0 W/m2 CLR
09:00 1.7 °F -4.0 °F 1011.1 in WNW 24.1 mph 24.1 mph 66 % 0.0 in 151.0 W/m2 CLR
09:05 1.7 °F -4.2 °F 1011.1 in WNW 20.9 mph 20.9 mph 65 % 0.0 in 153.0 W/m2 CLR
09:10 1.7 °F -4.2 °F 1011.1 in West 25.9 mph 25.9 mph 65 % 0.0 in 190.0 W/m2 CLR
09:15 2.2 °F -3.9 °F 1011.1 in WNW 22.2 mph 22.2 mph 64 % 0.0 in 206.0 W/m2 CLR
09:20 2.2 °F -3.9 °F 1011.1 in NNW 22.5 mph 22.5 mph 64 % 0.0 in 225.0 W/m2 CLR
09:25 2.8 °F -3.4 °F 1011.1 in WNW 18.5 mph 18.5 mph 64 % 0.0 in 241.0 W/m2 CLR
09:31 2.8 °F -3.6 °F 1011.1 in NW 16.7 mph 16.7 mph 63 % 0.0 in 260.0 W/m2 CLR
09:35 2.8 °F -3.6 °F 1011.1 in WNW 18.5 mph 18.5 mph 63 % 0.0 in 272.0 W/m2 CLR
09:41 3.3 °F -3.3 °F 1011.1 in NW 20.4 mph 20.4 mph 62 % 0.0 in 287.0 W/m2 CLR
09:46 3.3 °F -3.1 °F 1011.1 in NNW 18.5 mph 18.5 mph 63 % 0.0 in 299.0 W/m2 CLR
09:51 3.3 °F -3.1 °F 1011.1 in NNW 20.9 mph 20.9 mph 63 % 0.0 in 316.0 W/m2 CLR
09:56 3.3 °F -3.3 °F 1011.4 in NW 24.1 mph 24.1 mph 62 % 0.0 in 332.0 W/m2 CLR
10:01 3.3 °F -3.5 °F 1011.4 in WNW 27.8 mph 27.8 mph 61 % 0.0 in 348.0 W/m2 CLR
10:06 3.9 °F -2.9 °F 1011.4 in NW 29.6 mph 29.6 mph 61 % 0.0 in 359.0 W/m2 CLR
10:11 3.9 °F -2.9 °F 1011.4 in WNW 29.0 mph 29.0 mph 61 % 0.0 in 371.0 W/m2 CLR
10:16 3.9 °F -2.9 °F 1011.4 in NW 25.9 mph 25.9 mph 61 % 0.0 in 390.0 W/m2 CLR
10:21 3.9 °F -3.2 °F 1011.4 in WNW 27.8 mph 27.8 mph 60 % 0.0 in 396.0 W/m2 CLR
10:26 4.4 °F -2.7 °F 1011.4 in NW 22.2 mph 22.2 mph 60 % 0.0 in 415.0 W/m2 CLR
10:31 4.4 °F -2.9 °F 1011.4 in NW 24.1 mph 24.1 mph 59 % 0.0 in 420.0 W/m2 CLR
10:36 4.4 °F -2.9 °F 1011.4 in NW 18.5 mph 18.5 mph 59 % 0.0 in 441.0 W/m2 CLR
10:41 4.4 °F -3.1 °F 1011.4 in North 22.5 mph 22.5 mph 58 % 0.0 in 455.0 W/m2 CLR
10:46 5.0 °F -2.6 °F 1011.4 in NW 22.2 mph 22.2 mph 58 % 0.0 in 464.0 W/m2 CLR
10:51 5.0 °F -2.8 °F 1011.4 in NW 25.9 mph 25.9 mph 57 % 0.0 in 478.0 W/m2 CLR
10:56 5.0 °F -2.8 °F 1011.1 in NW 29.6 mph 29.6 mph 57 % 0.0 in 487.0 W/m2 CLR
11:01 5.6 °F -2.3 °F 1011.4 in WNW 27.8 mph 27.8 mph 57 % 0.0 in 497.0 W/m2 CLR
11:06 5.6 °F -2.6 °F 1011.4 in NW 24.1 mph 24.1 mph 56 % 0.0 in 506.0 W/m2 CLR
11:11 6.1 °F -2.5 °F 1011.1 in NW 27.8 mph 27.8 mph 54 % 0.0 in 522.0 W/m2 CLR
11:16 5.6 °F -3.1 °F 1011.4 in NNW 27.8 mph 27.8 mph 54 % 0.0 in 534.0 W/m2 CLR
11:21 6.1 °F -2.3 °F 1011.4 in NNW 20.4 mph 20.4 mph 55 % 0.0 in 536.0 W/m2 CLR
11:26 6.1 °F -2.5 °F 1011.4 in NNW 25.9 mph 25.9 mph 54 % 0.0 in 554.0 W/m2 CLR
11:31 6.7 °F -2.0 °F 1011.1 in NW 22.2 mph 22.2 mph 54 % 0.0 in 561.0 W/m2 CLR
11:36 6.7 °F -2.0 °F 1011.1 in NNW 13.0 mph 13.0 mph 54 % 0.0 in 573.0 W/m2 CLR
11:41 6.7 °F -2.5 °F 1011.1 in WNW 22.2 mph 22.2 mph 52 % 0.0 in 578.0 W/m2 CLR
11:46 6.7 °F -2.8 °F 1011.1 in WNW 31.5 mph 31.5 mph 51 % 0.0 in 587.0 W/m2 CLR
11:51 6.7 °F -2.5 °F 1011.1 in NW 24.1 mph 24.1 mph 52 % 0.0 in 596.0 W/m2 CLR
11:56 6.7 °F -3.1 °F 1011.1 in North 22.2 mph 22.2 mph 50 % 0.0 in 599.0 W/m2 CLR
12:01 7.2 °F -2.8 °F 1011.1 in NNW 19.3 mph 19.3 mph 49 % 0.0 in 596.0 W/m2 CLR
12:06 7.2 °F -2.8 °F 1011.1 in NW 18.5 mph 18.5 mph 49 % 0.0 in 612.0 W/m2 CLR
12:11 7.2 °F -2.8 °F 1011.1 in NW 20.4 mph 20.4 mph 49 % 0.0 in 613.0 W/m2 CLR
12:16 7.8 °F -2.6 °F 1011.1 in NW 25.9 mph 25.9 mph 48 % 0.0 in 628.0 W/m2 CLR
12:21 7.8 °F -2.8 °F 1011.1 in NNW 27.8 mph 27.8 mph 47 % 0.0 in 629.0 W/m2 CLR
12:26 7.8 °F -3.1 °F 1011.1 in NW 27.8 mph 27.8 mph 46 % 0.0 in 631.0 W/m2 CLR
12:31 7.8 °F -3.1 °F 1011.1 in NNW 31.5 mph 31.5 mph 46 % 0.0 in 636.0 W/m2 CLR
12:36 7.8 °F -3.4 °F 1010.7 in NNW 35.2 mph 35.2 mph 45 % 0.0 in 638.0 W/m2 CLR
12:41 8.3 °F -2.9 °F 1010.7 in NNW 29.0 mph 29.0 mph 45 % 0.0 in 638.0 W/m2 CLR
12:46 8.9 °F -2.7 °F 1010.7 in North 20.4 mph 20.4 mph 44 % 0.0 in 645.0 W/m2 CLR
12:51 8.9 °F -2.4 °F 1010.7 in NNW 22.2 mph 22.2 mph 45 % 0.0 in 645.0 W/m2 CLR
12:56 8.9 °F -2.7 °F 1010.7 in NNW 24.1 mph 24.1 mph 44 % 0.0 in 654.0 W/m2 CLR
13:01 8.9 °F -3.3 °F 1010.4 in NW 29.6 mph 29.6 mph 42 % 0.0 in 652.0 W/m2 CLR
13:06 8.3 °F -3.6 °F 1010.4 in NW 29.0 mph 29.0 mph 43 % 0.0 in 663.0 W/m2 CLR
13:11 8.9 °F -3.3 °F 1010.4 in NW 19.3 mph 19.3 mph 42 % 0.0 in 654.0 W/m2 CLR
13:16 8.9 °F -3.3 °F 1010.0 in NW 25.9 mph 25.9 mph 42 % 0.0 in 661.0 W/m2 CLR
13:21 8.9 °F -3.7 °F 1010.0 in NW 22.2 mph 22.2 mph 41 % 0.0 in 661.0 W/m2 CLR
13:26 8.9 °F -3.7 °F 1010.0 in WNW 24.1 mph 24.1 mph 41 % 0.0 in 654.0 W/m2 CLR
13:31 8.3 °F -4.2 °F 1009.7 in NW 19.3 mph 19.3 mph 41 % 0.0 in 652.0 W/m2 CLR
13:36 8.9 °F -4.0 °F 1009.7 in WNW 14.8 mph 14.8 mph 40 % 0.0 in 652.0 W/m2 CLR
13:41 8.9 °F -3.7 °F 1009.7 in NNW 22.5 mph 22.5 mph 41 % 0.0 in 650.0 W/m2 CLR
13:46 9.4 °F -3.5 °F 1009.7 in NNW 9.3 mph 9.3 mph 40 % 0.0 in 647.0 W/m2 CLR
13:51 9.4 °F -3.5 °F 1009.7 in NW 22.2 mph 22.2 mph 40 % 0.0 in 649.0 W/m2 CLR
13:56 9.4 °F -3.5 °F 1009.7 in West 25.9 mph 25.9 mph 40 % 0.0 in 642.0 W/m2 CLR
14:01 9.4 °F -3.5 °F 1009.7 in NNW 20.4 mph 20.4 mph 40 % 0.0 in 635.0 W/m2 CLR
14:06 9.4 °F -3.2 °F 1009.7 in NW 24.1 mph 24.1 mph 41 % 0.0 in 638.0 W/m2 CLR
14:11 9.4 °F -3.2 °F 1009.7 in North 16.7 mph 16.7 mph 41 % 0.0 in 633.0 W/m2 CLR
14:16 10.0 °F -3.3 °F 1009.7 in North 20.9 mph 20.9 mph 39 % 0.0 in 622.0 W/m2 CLR
14:21 10.0 °F -3.0 °F 1009.4 in NW 25.9 mph 25.9 mph 40 % 0.0 in 624.0 W/m2 CLR
14:26 10.0 °F -3.0 °F 1009.4 in NNW 16.7 mph 16.7 mph 40 % 0.0 in 612.0 W/m2 CLR
14:31 10.0 °F -2.7 °F 1009.4 in NW 18.5 mph 18.5 mph 41 % 0.0 in 603.0 W/m2 CLR
14:36 10.0 °F -2.3 °F 1009.4 in North 24.1 mph 24.1 mph 42 % 0.0 in 592.0 W/m2 CLR
14:41 10.0 °F -2.0 °F 1009.4 in North 20.4 mph 20.4 mph 43 % 0.0 in 589.0 W/m2 CLR
14:46 10.0 °F -3.0 °F 1009.4 in North 22.2 mph 22.2 mph 40 % 0.0 in 580.0 W/m2 CLR
14:51 10.0 °F -2.3 °F 1009.4 in NW 20.9 mph 20.9 mph 42 % 0.0 in 571.0 W/m2 CLR
14:56 10.0 °F -2.3 °F 1009.4 in NNW 25.9 mph 25.9 mph 42 % 0.0 in 568.0 W/m2 CLR
15:01 10.0 °F -2.7 °F 1009.4 in NW 18.5 mph 18.5 mph 41 % 0.0 in 554.0 W/m2 CLR
15:06 9.4 °F -3.5 °F 1009.4 in NNW 14.8 mph 14.8 mph 40 % 0.0 in 543.0 W/m2 CLR
15:11 9.4 °F -2.5 °F 1009.4 in NNW 14.8 mph 14.8 mph 43 % 0.0 in 536.0 W/m2 CLR
15:16 10.0 °F -2.0 °F 1009.4 in NNE 19.3 mph 19.3 mph 43 % 0.0 in 520.0 W/m2 CLR
15:21 10.0 °F -1.7 °F 1009.4 in NNW 18.5 mph 18.5 mph 44 % 0.0 in 517.0 W/m2 CLR
15:26 9.4 °F -2.5 °F 1009.4 in North 14.8 mph 14.8 mph 43 % 0.0 in 499.0 W/m2 CLR
15:31 9.4 °F -2.5 °F 1009.4 in North 17.7 mph 17.7 mph 43 % 0.0 in 499.0 W/m2 CLR
15:36 9.4 °F -3.2 °F 1009.0 in WNW 11.1 mph 11.1 mph 41 % 0.0 in 478.0 W/m2 CLR
15:41 9.4 °F -2.2 °F 1009.0 in North 14.8 mph 14.8 mph 44 % 0.0 in 471.0 W/m2 CLR
15:46 10.0 °F -1.7 °F 1009.0 in North 18.5 mph 18.5 mph 44 % 0.0 in 464.0 W/m2 CLR
15:51 10.0 °F -2.0 °F 1009.0 in NW 24.1 mph 24.1 mph 43 % 0.0 in 445.0 W/m2 CLR
15:56 9.4 °F -2.5 °F 1009.0 in NW 11.1 mph 11.1 mph 43 % 0.0 in 431.0 W/m2 CLR
16:01 9.4 °F -2.2 °F 1009.0 in NNW 19.3 mph 19.3 mph 44 % 0.0 in 420.0 W/m2 CLR
16:06 9.4 °F -2.2 °F 1009.0 in North 18.5 mph 18.5 mph 44 % 0.0 in 410.0 W/m2 CLR
16:11 9.4 °F -2.2 °F 1009.0 in NW 25.9 mph 25.9 mph 44 % 0.0 in 397.0 W/m2 CLR
16:16 9.4 °F -1.9 °F 1009.0 in NNW 13.0 mph 13.0 mph 45 % 0.0 in 381.0 W/m2 CLR
16:22 9.4 °F -1.9 °F 1009.0 in NNW 5.6 mph   45 % 0.0 in 371.0 W/m2 CLR
16:27 8.9 °F -2.4 °F 1009.0 in NNW 18.5 mph 18.5 mph 45 % 0.0 in 357.0 W/m2 CLR
16:32 8.9 °F -2.1 °F 1009.0 in North 22.2 mph 22.2 mph 46 % 0.0 in 332.0 W/m2 CLR
16:37 8.9 °F -2.1 °F 1009.0 in North 13.0 mph 13.0 mph 46 % 0.0 in 323.0 W/m2 CLR
16:42 8.9 °F -2.1 °F 1009.0 in NNE 17.7 mph 17.7 mph 46 % 0.0 in 311.0 W/m2 CLR
16:47 8.9 °F -2.1 °F 1009.0 in North 22.2 mph 22.2 mph 46 % 0.0 in 292.0 W/m2 CLR
16:52 8.9 °F -2.1 °F 1009.0 in NW 16.7 mph 16.7 mph 46 % 0.0 in 274.0 W/m2 CLR
16:57 8.9 °F -2.1 °F 1009.0 in North 18.5 mph 18.5 mph 46 % 0.0 in 262.0 W/m2 CLR
17:02 8.9 °F -1.8 °F 1009.0 in NNW 16.7 mph 16.7 mph 47 % 0.0 in 250.0 W/m2 CLR
17:07 8.9 °F -1.8 °F 1009.0 in NW 14.8 mph 14.8 mph 47 % 0.0 in 227.0 W/m2 CLR
17:12 8.9 °F -1.8 °F 1009.0 in North 11.1 mph 11.1 mph 47 % 0.0 in 207.0 W/m2 CLR
17:17 8.3 °F -2.3 °F 1009.0 in North 18.5 mph 18.5 mph 47 % 0.0 in 193.0 W/m2 CLR
17:22 8.3 °F -2.1 °F 1009.0 in NW 24.1 mph 24.1 mph 48 % 0.0 in 178.0 W/m2 CLR
17:27 8.3 °F -2.1 °F 1009.0 in North 16.7 mph 16.7 mph 48 % 0.0 in 155.0 W/m2 CLR
17:32 7.8 °F -2.3 °F 1009.0 in North 13.0 mph 13.0 mph 49 % 0.0 in 134.0 W/m2 CLR
17:37 7.8 °F -2.3 °F 1009.4 in North 18.5 mph 18.5 mph 49 % 0.0 in 120.0 W/m2 CLR
17:42 7.8 °F -2.0 °F 1009.4 in North 16.7 mph 16.7 mph 50 % 0.0 in 109.0 W/m2 CLR
17:47 7.2 °F -2.5 °F 1009.4 in NNE 18.5 mph 18.5 mph 50 % 0.0 in 95.0 W/m2 CLR
17:52 7.2 °F -2.3 °F 1009.0 in NNW 16.7 mph 16.7 mph 51 % 0.0 in 76.0 W/m2 FEW
17:57 7.2 °F -2.3 °F 1009.0 in North 14.8 mph 14.8 mph 51 % 0.0 in 63.0 W/m2 SCT
18:02 6.7 °F -2.8 °F 1009.4 in NNW 14.8 mph 14.8 mph 51 % 0.0 in 54.0 W/m2 SCT
18:07 6.7 °F -2.8 °F 1009.4 in NW 5.6 mph 5.6 mph 51 % 0.0 in 44.0 W/m2 SCT
18:12 6.7 °F -2.5 °F 1009.4 in Calm     52 % 0.0 in 35.0 W/m2 BKN
18:17 6.7 °F -2.5 °F 1009.4 in Calm     52 % 0.0 in 28.0 W/m2 BKN
18:22 6.1 °F -2.8 °F 1009.4 in Calm     53 % 0.0 in 23.0 W/m2 BKN
18:27 6.1 °F -2.8 °F 1009.4 in NNW 8.0 mph 8.0 mph 53 % 0.0 in 18.0 W/m2 BKN
18:32 6.1 °F -2.5 °F 1009.4 in NNW 11.1 mph 11.1 mph 54 % 0.0 in 12.0 W/m2 BKN
18:37 5.6 °F -2.8 °F 1009.4 in Calm     55 % 0.0 in 9.0 W/m2 BKN
18:42 5.6 °F -2.8 °F 1009.4 in Calm     55 % 0.0 in 5.0 W/m2 OVC
18:47 5.0 °F -3.1 °F 1009.7 in Calm     56 % 0.0 in 0.0 W/m2 OVC
18:52 4.4 °F -3.3 °F 1009.7 in Calm     57 % 0.0 in 0.0 W/m2 OVC
18:57 4.4 °F -3.1 °F 1009.7 in Calm     58 % 0.0 in 0.0 W/m2 CLR
19:02 4.4 °F -2.9 °F 1009.7 in Calm     59 % 0.0 in 0.0 W/m2 CLR
19:07 3.9 °F -3.2 °F 1009.7 in Calm     60 % 0.0 in 0.0 W/m2 CLR
19:09 3.9 °F -3.2 °F 1009.7 in Calm     60 % 0.0 in 0.0 W/m2 CLR
19:14 3.3 °F -3.5 °F 1010.0 in Calm     61 % 0.0 in 0.0 W/m2 CLR
19:19 3.3 °F -3.5 °F 1010.0 in Calm     61 % 0.0 in 0.0 W/m2 CLR
19:24 3.3 °F -3.5 °F 1010.0 in Calm     61 % 0.0 in 0.0 W/m2 CLR
19:29 2.8 °F -3.8 °F 1010.0 in Calm     62 % 0.0 in 0.0 W/m2 CLR
19:34 2.8 °F -3.6 °F 1009.7 in Calm     63 % 0.0 in 0.0 W/m2 CLR
19:39 2.8 °F -3.4 °F 1010.0 in NW 11.1 mph 11.1 mph 64 % 0.0 in 0.0 W/m2 CLR
19:44 2.8 °F -3.8 °F 1010.0 in NW 11.3 mph 11.3 mph 62 % 0.0 in 0.0 W/m2 CLR
19:49 2.8 °F -4.0 °F 1010.0 in WNW 9.3 mph 9.3 mph 61 % 0.0 in 0.0 W/m2 CLR
19:54 2.2 °F -4.8 °F 1010.0 in Calm     60 % 0.0 in 0.0 W/m2 CLR
19:59 1.7 °F -4.8 °F 1010.0 in Calm     62 % 0.0 in 0.0 W/m2 CLR
20:04 1.7 °F -4.4 °F 1010.0 in Calm     64 % 0.0 in 0.0 W/m2 CLR
20:09 1.1 °F -4.3 °F 1010.0 in West 13.0 mph 13.0 mph 67 % 0.0 in 0.0 W/m2 CLR
20:14 1.1 °F -4.2 °F 1010.0 in West 8.0 mph 8.0 mph 68 % 0.0 in 0.0 W/m2 CLR
20:19 1.1 °F -4.2 °F 1010.0 in West 9.7 mph 9.7 mph 68 % 0.0 in 0.0 W/m2 CLR
20:24 0.6 °F -4.5 °F 1010.0 in West 11.1 mph 11.1 mph 69 % 0.0 in 0.0 W/m2 CLR
20:29 0.0 °F -5.0 °F 1010.4 in West 9.7 mph 9.7 mph 69 % 0.0 in 0.0 W/m2 CLR
20:34 0.0 °F -4.8 °F 1010.4 in WNW 11.1 mph 11.1 mph 70 % 0.0 in 0.0 W/m2 CLR
20:39 0.6 °F -4.3 °F 1010.4 in West 11.1 mph 11.1 mph 70 % 0.0 in 0.0 W/m2 CLR
20:44 1.1 °F -3.9 °F 1010.4 in WNW 13.0 mph 13.0 mph 69 % 0.0 in 0.0 W/m2 CLR
20:50 1.1 °F -4.6 °F 1010.4 in WNW 9.3 mph 9.3 mph 66 % 0.0 in 0.0 W/m2 CLR
20:55 1.1 °F -4.7 °F 1010.4 in NW 9.3 mph 9.3 mph 65 % 0.0 in 0.0 W/m2 CLR
21:00 0.6 °F -5.5 °F 1010.4 in Calm     64 % 0.0 in 0.0 W/m2 CLR
21:05 0.0 °F -6.0 °F 1010.4 in Calm     64 % 0.0 in 0.0 W/m2 CLR
21:10 0.0 °F -5.4 °F 1010.4 in Calm     67 % 0.0 in 0.0 W/m2 CLR
21:15 0.0 °F -5.0 °F 1010.4 in Calm     69 % 0.0 in 0.0 W/m2 CLR
21:20 -0.6 °F -5.3 °F 1010.4 in Calm     70 % 0.0 in 0.0 W/m2 CLR
21:25 -0.6 °F -5.2 °F 1010.4 in Calm     71 % 0.0 in 0.0 W/m2 CLR
21:30 -1.1 °F -5.5 °F 1010.4 in Calm     72 % 0.0 in 0.0 W/m2 CLR
21:35 -1.1 °F -5.3 °F 1010.4 in Calm     73 % 0.0 in 0.0 W/m2 CLR
21:40 -1.1 °F -5.3 °F 1010.7 in Calm     73 % 0.0 in 0.0 W/m2 CLR
21:45 -1.1 °F -5.3 °F 1010.4 in Calm     73 % 0.0 in 0.0 W/m2 CLR
21:50 -1.1 °F -5.2 °F 1010.4 in Calm     74 % 0.0 in 0.0 W/m2 CLR
21:55 -1.1 °F -5.2 °F 1010.7 in Calm     74 % 0.0 in 0.0 W/m2 CLR
22:00 -1.1 °F -5.2 °F 1010.7 in Calm     74 % 0.0 in 0.0 W/m2 CLR
22:05 -1.1 °F -5.2 °F 1010.7 in Calm     74 % 0.0 in 0.0 W/m2 CLR
22:10 -1.7 °F -5.5 °F 1010.7 in Calm     75 % 0.0 in 0.0 W/m2 CLR
22:15 -1.7 °F -5.5 °F 1010.7 in Calm     75 % 0.0 in 0.0 W/m2 CLR
22:20 -1.7 °F -5.5 °F 1010.7 in Calm     75 % 0.0 in 0.0 W/m2 CLR
22:25 -2.2 °F -5.9 °F 1011.1 in Calm     76 % 0.0 in 0.0 W/m2 CLR
22:30 -1.7 °F -5.3 °F 1011.1 in Calm     76 % 0.0 in 0.0 W/m2 CLR
22:35 -1.1 °F -4.8 °F 1010.7 in Calm     76 % 0.0 in 0.0 W/m2 CLR
22:40 -1.7 °F -5.3 °F 1011.1 in Calm     76 % 0.0 in 0.0 W/m2 CLR
22:45 -1.7 °F -5.2 °F 1010.7 in Calm     77 % 0.0 in 0.0 W/m2 CLR
22:50 -2.2 °F -5.7 °F 1010.7 in Calm     77 % 0.0 in 0.0 W/m2 CLR
22:55 -2.2 °F -5.7 °F 1010.7 in Calm     77 % 0.0 in 0.0 W/m2 CLR
23:00 -2.2 °F -5.6 °F 1010.7 in Calm     78 % 0.0 in 0.0 W/m2 CLR
23:05 -2.2 °F -5.6 °F 1010.7 in Calm     78 % 0.0 in 0.0 W/m2 CLR
23:10 -2.8 °F -6.1 °F 1011.1 in Calm     78 % 0.0 in 0.0 W/m2 CLR
23:15 -2.8 °F -5.9 °F 1011.1 in Calm     79 % 0.0 in 0.0 W/m2 CLR
23:20 -2.8 °F -5.7 °F 1011.1 in Calm     80 % 0.0 in 0.0 W/m2 CLR
23:25 -2.8 °F -5.7 °F 1011.1 in Calm     80 % 0.0 in 0.0 W/m2 CLR
23:30 -2.8 °F -5.6 °F 1011.1 in Calm     81 % 0.0 in 0.0 W/m2 CLR
23:35 -2.8 °F -5.6 °F 1011.1 in Calm     81 % 0.0 in 0.0 W/m2 CLR
23:40 -2.8 °F -5.6 °F 1011.1 in Calm     81 % 0.0 in 0.0 W/m2 CLR
23:45 -2.8 °F -5.6 °F 1011.1 in Calm     81 % 0.0 in 0.0 W/m2 CLR
23:50 -2.8 °F -5.4 °F 1011.1 in Calm     82 % 0.0 in 0.0 W/m2 CLR
23:55 -2.8 °F -5.4 °F 1011.1 in Calm     82 % 0.0 in 0.0 W/m2 CLR
Lo Temps de Massalio
Compliments of Weather Underground - 1.25 mb